createdAt,value
2024-04-05T14:28:09.790Z,19.40
2024-04-05T14:33:14.009Z,19.20
2024-04-05T14:38:18.389Z,19.30
2024-04-05T14:43:24.893Z,19.10
2024-04-05T14:48:29.180Z,19.10
2024-04-05T14:53:34.717Z,19.10
2024-04-05T14:58:41.097Z,19.10
2024-04-05T15:03:45.411Z,19.10
2024-04-05T15:08:53.581Z,19.20
2024-04-05T15:14:01.359Z,19.30
2024-04-05T15:19:05.636Z,19.60
2024-04-05T15:24:10.268Z,19.90
2024-04-05T15:29:16.753Z,20.30
2024-04-05T15:34:20.847Z,20.50
2024-04-05T15:39:26.321Z,20.40
2024-04-05T15:44:35.941Z,20.40
2024-04-05T15:49:40.780Z,20.40
2024-04-05T15:54:51.159Z,20.20
2024-04-05T15:59:57.640Z,20.00
2024-04-05T16:05:02.156Z,20.00
2024-04-05T16:10:07.896Z,19.90
2024-04-05T16:15:14.055Z,19.90
2024-04-05T16:20:18.648Z,20.00
2024-04-05T16:25:22.761Z,20.10
2024-04-05T16:30:30.719Z,20.00
2024-04-05T16:35:34.796Z,20.00
2024-04-05T16:40:39.391Z,19.90
2024-04-05T16:45:46.255Z,19.90
2024-04-05T16:50:50.539Z,19.80
2024-04-05T16:55:55.066Z,19.80
2024-04-05T17:01:01.372Z,19.60
2024-04-05T17:06:09.866Z,19.50
2024-04-05T17:11:15.340Z,19.40
2024-04-05T17:16:23.435Z,19.30
2024-04-05T17:21:44.931Z,19.10
2024-04-05T17:26:52.741Z,19.00
2024-04-05T17:32:05.044Z,18.90
2024-04-05T17:37:10.038Z,18.70
2024-04-05T17:42:14.248Z,18.60
2024-04-05T17:47:20.183Z,18.40
2024-04-05T17:52:24.524Z,18.30
2024-04-05T17:57:28.717Z,18.20
2024-04-05T18:02:36.676Z,18.10
2024-04-05T18:07:41.205Z,18.00
2024-04-05T18:12:45.325Z,17.80
2024-04-05T18:17:51.960Z,17.80
2024-04-05T18:22:56.161Z,17.70
2024-04-05T18:28:00.418Z,17.70
2024-04-05T18:33:07.850Z,17.60
2024-04-05T18:38:12.889Z,17.60
2024-04-05T18:43:20.732Z,17.50
2024-04-05T18:48:27.194Z,17.50
2024-04-05T18:53:31.554Z,17.40
2024-04-05T18:58:37.258Z,17.40
2024-04-05T19:03:58.945Z,17.30
2024-04-05T19:09:25.330Z,17.20
2024-04-05T19:14:31.342Z,17.00
2024-04-05T19:19:38.068Z,17.00
2024-04-05T19:24:42.696Z,16.80
2024-04-05T19:29:48.467Z,16.80
2024-04-05T19:34:56.050Z,16.70
2024-04-05T19:40:11.719Z,16.70
2024-04-05T19:45:20.290Z,16.50
2024-04-05T19:50:28.082Z,16.40
2024-04-05T19:55:34.921Z,16.30
2024-04-05T20:00:39.449Z,16.30
2024-04-05T20:05:49.449Z,16.30
2024-04-05T20:10:58.862Z,16.30
2024-04-05T20:16:05.343Z,16.40
2024-04-05T20:21:14.684Z,16.40
2024-04-05T20:26:21.052Z,16.50
2024-04-05T20:31:38.497Z,16.50
2024-04-05T20:36:46.742Z,16.60
2024-04-05T20:41:51.068Z,16.60
2024-04-05T20:46:55.375Z,16.60
2024-04-05T20:52:02.486Z,16.70
2024-04-05T20:57:07.511Z,16.80
2024-04-05T21:02:11.693Z,16.90
2024-04-05T21:07:17.742Z,16.90
2024-04-05T21:12:21.998Z,16.90
2024-04-05T21:17:26.064Z,17.00
2024-04-05T21:22:33.018Z,17.00
2024-04-05T21:27:37.050Z,17.10
2024-04-05T21:32:41.385Z,17.10
2024-04-05T21:37:47.520Z,17.10
2024-04-05T21:42:51.655Z,17.10
2024-04-05T21:47:56.082Z,17.10
2024-04-05T21:53:02.806Z,17.10
2024-04-05T21:58:07.141Z,17.10
2024-04-05T22:03:11.390Z,17.10
2024-04-05T22:08:18.733Z,17.00
2024-04-05T22:13:22.839Z,17.00
2024-04-05T22:18:27.733Z,17.00
2024-04-05T22:23:33.747Z,17.00
2024-04-05T22:28:37.887Z,17.00
2024-04-05T22:33:42.031Z,17.00
2024-04-05T22:38:48.620Z,17.00
2024-04-05T22:43:52.601Z,16.90
2024-04-05T22:48:56.895Z,16.90
2024-04-05T22:54:04.401Z,16.80
2024-04-05T22:59:09.540Z,16.80
2024-04-05T23:04:14.005Z,16.80
2024-04-05T23:09:20.056Z,16.70
2024-04-05T23:14:24.189Z,16.60
2024-04-05T23:19:30.227Z,16.60
2024-04-05T23:24:36.159Z,16.60
2024-04-05T23:29:40.468Z,16.60
